createdAt,value
2023-03-11T00:00:49.717Z,85.46
2023-03-11T00:02:55.456Z,85.00
2023-03-11T00:04:58.031Z,85.22
2023-03-11T00:07:00.737Z,85.33
2023-03-11T00:09:05.208Z,85.13
2023-03-11T00:11:07.903Z,85.18
2023-03-11T00:13:13.425Z,85.49
2023-03-11T00:15:16.152Z,86.21
2023-03-11T00:17:18.832Z,86.41
2023-03-11T00:19:21.429Z,86.80
2023-03-11T00:21:24.057Z,87.28
2023-03-11T00:23:27.315Z,87.30
2023-03-11T00:25:35.905Z,88.02
2023-03-11T00:27:39.093Z,87.27
2023-03-11T00:29:41.745Z,87.60
2023-03-11T00:31:44.323Z,87.55
2023-03-11T00:33:46.936Z,87.94
2023-03-11T00:35:50.433Z,87.79
2023-03-11T00:37:58.672Z,87.67
2023-03-11T00:40:01.266Z,86.93
2023-03-11T00:42:05.732Z,86.55
2023-03-11T00:44:08.497Z,86.20
2023-03-11T00:46:11.145Z,86.12
2023-03-11T00:48:14.311Z,86.16
2023-03-11T00:50:28.954Z,85.97
2023-03-11T00:52:31.512Z,85.26
2023-03-11T00:54:34.115Z,84.63
2023-03-11T00:56:36.724Z,84.87
2023-03-11T00:58:40.878Z,84.81
2023-03-11T01:00:43.528Z,84.56
2023-03-11T01:02:46.618Z,84.59
2023-03-11T01:04:54.517Z,84.40
2023-03-11T01:06:57.101Z,85.00
2023-03-11T01:08:59.730Z,85.39
2023-03-11T01:11:04.011Z,85.43
2023-03-11T01:13:06.660Z,85.63
2023-03-11T01:15:17.837Z,86.00
2023-03-11T01:17:22.292Z,86.18
2023-03-11T01:19:24.832Z,86.67
2023-03-11T01:21:27.646Z,87.27
2023-03-11T01:23:30.369Z,87.14
2023-03-11T01:25:32.990Z,87.71
2023-03-11T01:27:36.274Z,88.03
2023-03-11T01:29:38.891Z,88.47
2023-03-11T01:31:41.624Z,88.19
2023-03-11T01:33:44.245Z,88.35
2023-03-11T01:35:47.241Z,88.06
2023-03-11T01:37:49.978Z,88.23
2023-03-11T01:39:52.672Z,88.67
2023-03-11T01:41:56.353Z,88.83
2023-03-11T01:43:59.080Z,89.31
2023-03-11T01:46:02.490Z,89.44
2023-03-11T01:48:05.500Z,89.45
2023-03-11T01:50:12.906Z,89.53
2023-03-11T01:52:15.582Z,89.45
2023-03-11T01:54:35.631Z,89.50
2023-03-11T01:56:39.926Z,89.39
2023-03-11T01:58:47.094Z,89.80
2023-03-11T02:00:49.814Z,89.61
2023-03-11T02:02:54.537Z,90.21
2023-03-11T02:04:57.734Z,90.24
2023-03-11T02:07:01.581Z,90.24
2023-03-11T02:09:04.408Z,90.43
2023-03-11T02:11:10.159Z,90.71
2023-03-11T02:13:12.779Z,90.83
2023-03-11T02:15:15.863Z,91.16
2023-03-11T02:17:18.490Z,91.07
2023-03-11T02:19:55.044Z,91.66
2023-03-11T02:21:57.982Z,91.44
2023-03-11T02:24:37.464Z,91.47
2023-03-11T02:26:52.310Z,91.73
2023-03-11T02:28:56.412Z,91.67
2023-03-11T02:30:59.382Z,91.87
2023-03-11T02:33:02.797Z,92.11
2023-03-11T02:35:06.847Z,92.67
2023-03-11T02:37:12.483Z,92.48
2023-03-11T02:39:15.244Z,92.68
2023-03-11T02:41:17.903Z,92.54
2023-03-11T02:43:31.455Z,92.63
2023-03-11T02:45:34.757Z,93.02
2023-03-11T02:47:39.615Z,93.31
2023-03-11T02:49:42.230Z,93.06
2023-03-11T02:51:44.813Z,93.32
2023-03-11T02:53:55.517Z,93.48
2023-03-11T02:55:58.063Z,93.24
2023-03-11T02:58:00.748Z,93.47
2023-03-11T03:00:10.915Z,93.43
2023-03-11T03:02:13.510Z,93.68
2023-03-11T03:04:16.156Z,93.41
2023-03-11T03:06:19.152Z,93.73
2023-03-11T03:08:21.733Z,94.10
2023-03-11T03:10:24.391Z,93.81
2023-03-11T03:12:26.969Z,93.57
2023-03-11T03:14:29.866Z,93.50
2023-03-11T03:16:32.553Z,94.29
2023-03-11T03:18:35.344Z,94.17
2023-03-11T03:20:38.113Z,94.50
2023-03-11T03:22:42.504Z,94.79
2023-03-11T03:24:45.192Z,95.13
2023-03-11T03:26:47.741Z,95.12
2023-03-11T03:28:50.369Z,94.51
2023-03-11T03:30:53.096Z,94.76
2023-03-11T03:32:56.376Z,95.23
2023-03-11T03:34:59.475Z,94.91
2023-03-11T03:37:02.170Z,95.18
2023-03-11T03:39:05.826Z,95.38
2023-03-11T03:41:08.655Z,95.14
2023-03-11T03:43:11.309Z,94.89
2023-03-11T03:45:14.078Z,94.98
2023-03-11T03:47:16.725Z,94.64
2023-03-11T03:49:19.377Z,95.09
2023-03-11T03:51:22.009Z,94.51
2023-03-11T03:53:24.648Z,94.33
2023-03-11T03:55:27.276Z,94.07
2023-03-11T03:57:30.533Z,94.16
2023-03-11T03:59:33.152Z,94.08
2023-03-11T04:01:35.761Z,93.50
2023-03-11T04:03:39.658Z,93.21
2023-03-11T04:05:42.319Z,93.70
2023-03-11T04:07:44.880Z,93.52
2023-03-11T04:09:47.546Z,93.35
2023-03-11T04:11:50.140Z,93.27
2023-03-11T04:13:52.729Z,93.40
2023-03-11T04:15:55.296Z,93.12
2023-03-11T04:17:57.928Z,92.85
2023-03-11T04:20:00.585Z,92.54
2023-03-11T04:22:03.213Z,92.35
2023-03-11T04:24:06.363Z,92.14
2023-03-11T04:26:08.986Z,91.58
2023-03-11T04:28:11.581Z,91.55
2023-03-11T04:30:14.283Z,91.06
2023-03-11T04:32:16.985Z,91.21
2023-03-11T04:34:19.759Z,90.81
2023-03-11T04:36:22.311Z,90.99
2023-03-11T04:38:25.301Z,91.02
2023-03-11T04:40:28.565Z,90.96
2023-03-11T04:42:31.307Z,90.37
2023-03-11T04:44:36.074Z,90.20
2023-03-11T04:46:39.094Z,90.07
2023-03-11T04:48:42.402Z,90.06
2023-03-11T04:50:45.011Z,89.77
2023-03-11T04:52:48.085Z,89.87
2023-03-11T04:54:53.167Z,89.50
2023-03-11T04:56:57.695Z,89.52
2023-03-11T04:59:01.029Z,88.75
2023-03-11T05:01:03.779Z,88.48
2023-03-11T05:03:06.349Z,88.64
2023-03-11T05:05:10.109Z,88.50
2023-03-11T05:07:12.823Z,87.98
2023-03-11T05:09:15.411Z,87.96
2023-03-11T05:11:18.008Z,87.28
2023-03-11T05:13:21.501Z,87.15
2023-03-11T05:15:24.123Z,86.12
2023-03-11T05:17:26.705Z,86.15
2023-03-11T05:19:32.756Z,85.86
2023-03-11T05:21:35.495Z,85.27
2023-03-11T05:23:38.082Z,84.34
2023-03-11T05:25:40.902Z,85.18
2023-03-11T05:27:43.630Z,84.87
2023-03-11T05:29:46.888Z,84.32
2023-03-11T05:31:49.659Z,83.95
2023-03-11T05:33:52.259Z,82.81
2023-03-11T05:35:54.905Z,82.80
2023-03-11T05:37:57.664Z,83.06
2023-03-11T05:40:00.203Z,81.32
2023-03-11T05:42:02.850Z,82.37
2023-03-11T05:44:05.701Z,80.02
2023-03-11T05:46:08.426Z,80.60
2023-03-11T05:48:11.045Z,81.22
2023-03-11T05:50:13.675Z,82.03
2023-03-11T05:52:16.924Z,81.53
2023-03-11T05:54:19.723Z,81.04
2023-03-11T05:56:23.749Z,80.43
2023-03-11T05:58:27.673Z,80.94
2023-03-11T06:00:30.788Z,80.26
2023-03-11T06:02:34.626Z,78.68
2023-03-11T06:04:37.982Z,79.31
2023-03-11T06:06:44.160Z,79.05
2023-03-11T06:08:49.996Z,78.42
2023-03-11T06:10:52.695Z,77.35
2023-03-11T06:12:55.331Z,77.24
2023-03-11T06:14:57.894Z,77.43
2023-03-11T06:17:00.627Z,77.83
2023-03-11T06:19:03.378Z,77.80
2023-03-11T06:21:06.162Z,75.85
2023-03-11T06:23:10.101Z,75.12
2023-03-11T06:25:13.036Z,74.32
2023-03-11T06:27:15.664Z,73.69
2023-03-11T06:29:18.494Z,72.43
2023-03-11T06:31:25.476Z,72.52
2023-03-11T06:33:28.156Z,72.80
2023-03-11T06:35:30.817Z,72.19
2023-03-11T06:37:37.258Z,72.48
2023-03-11T06:39:39.840Z,71.53
2023-03-11T06:41:43.343Z,72.60
2023-03-11T06:43:46.478Z,73.09
2023-03-11T06:45:49.161Z,72.28
2023-03-11T06:47:51.987Z,72.06
2023-03-11T06:49:54.861Z,71.08
2023-03-11T06:51:57.423Z,70.90
2023-03-11T06:54:00.140Z,70.46
2023-03-11T06:56:09.214Z,70.66
2023-03-11T06:58:11.735Z,68.14
2023-03-11T07:00:15.410Z,67.77
2023-03-11T07:02:18.028Z,65.96
2023-03-11T07:04:21.359Z,65.53
2023-03-11T07:06:26.364Z,64.12
2023-03-11T07:08:29.435Z,64.64
2023-03-11T07:10:32.098Z,64.51
2023-03-11T07:12:34.691Z,61.18
2023-03-11T07:14:37.250Z,59.88
2023-03-11T07:16:40.598Z,59.13
2023-03-11T07:18:45.236Z,59.25
2023-03-11T07:20:48.209Z,59.67
2023-03-11T07:22:51.281Z,59.68
2023-03-11T07:24:53.873Z,59.48
2023-03-11T07:26:56.652Z,58.97
2023-03-11T07:28:59.715Z,58.14
2023-03-11T07:31:15.560Z,57.07
2023-03-11T07:33:18.699Z,56.84
2023-03-11T07:35:21.921Z,57.01
2023-03-11T07:37:24.461Z,56.33
2023-03-11T07:39:28.433Z,56.28
2023-03-11T07:41:33.473Z,56.25
2023-03-11T07:43:36.486Z,56.95
2023-03-11T07:45:39.500Z,56.34
2023-03-11T07:47:42.366Z,55.43
2023-03-11T07:49:45.465Z,54.74
2023-03-11T07:51:48.111Z,55.46
2023-03-11T07:53:53.546Z,56.08
2023-03-11T07:56:00.092Z,54.32
2023-03-11T07:58:02.670Z,55.21
2023-03-11T08:00:06.451Z,55.15
2023-03-11T08:02:10.979Z,55.23
2023-03-11T08:04:17.208Z,52.39
2023-03-11T08:06:22.505Z,53.65
2023-03-11T08:08:25.386Z,51.72
2023-03-11T08:10:28.044Z,51.20
2023-03-11T08:12:30.677Z,52.15
2023-03-11T08:14:33.553Z,50.99
2023-03-11T08:16:36.214Z,50.26
2023-03-11T08:18:38.815Z,50.23
2023-03-11T08:20:41.809Z,50.21
2023-03-11T08:22:57.245Z,50.66
2023-03-11T08:25:01.200Z,50.44
2023-03-11T08:27:04.349Z,50.42
2023-03-11T08:29:07.193Z,51.59
2023-03-11T08:31:27.145Z,50.67
2023-03-11T08:33:29.903Z,50.48
2023-03-11T08:35:33.146Z,50.61
2023-03-11T08:37:36.087Z,51.61
2023-03-11T08:39:39.030Z,52.36
2023-03-11T08:41:41.736Z,52.27
2023-03-11T08:43:45.569Z,50.94
2023-03-11T08:45:48.851Z,51.68
2023-03-11T08:47:51.457Z,51.62
2023-03-11T08:49:54.338Z,51.65
2023-03-11T08:51:57.456Z,50.27
2023-03-11T08:54:01.117Z,50.08
2023-03-11T08:56:04.079Z,50.96
2023-03-11T08:58:07.793Z,51.08
2023-03-11T09:00:13.314Z,51.07
2023-03-11T09:02:16.170Z,50.68
2023-03-11T09:04:18.777Z,50.03
2023-03-11T09:06:22.146Z,50.73
2023-03-11T09:08:24.942Z,49.98
2023-03-11T09:10:27.561Z,49.55
2023-03-11T09:12:30.566Z,50.35
2023-03-11T09:14:33.183Z,49.81
2023-03-11T09:16:35.959Z,49.02
2023-03-11T09:18:38.647Z,48.43
2023-03-11T09:20:42.944Z,48.61
2023-03-11T09:22:45.982Z,48.88
2023-03-11T09:24:48.611Z,48.94
2023-03-11T09:26:51.242Z,48.90
2023-03-11T09:28:53.829Z,49.07
2023-03-11T09:30:57.454Z,47.86
2023-03-11T09:33:00.233Z,48.76
2023-03-11T09:35:03.144Z,48.41
2023-03-11T09:37:05.853Z,48.15
2023-03-11T09:39:09.033Z,48.51
2023-03-11T09:41:17.723Z,47.27
2023-03-11T09:43:26.020Z,47.32
2023-03-11T09:45:30.911Z,47.28
2023-03-11T09:47:46.284Z,47.39
2023-03-11T09:50:08.600Z,47.11
2023-03-11T09:52:16.290Z,47.24
2023-03-11T09:54:18.935Z,47.26
2023-03-11T09:56:22.772Z,46.09
2023-03-11T09:58:31.400Z,45.68
2023-03-11T10:00:34.349Z,45.83
2023-03-11T10:02:38.309Z,45.22
2023-03-11T10:04:49.545Z,45.02
2023-03-11T10:06:52.128Z,45.43
2023-03-11T10:09:33.486Z,44.19
2023-03-11T10:11:57.256Z,44.96
2023-03-11T10:14:06.131Z,45.63
2023-03-11T10:16:46.164Z,44.40
2023-03-11T10:18:54.665Z,44.75
2023-03-11T10:21:25.755Z,44.28
2023-03-11T10:23:59.318Z,43.78
2023-03-11T10:26:17.563Z,44.29
2023-03-11T10:28:24.872Z,43.77
2023-03-11T10:30:53.431Z,43.63
2023-03-11T10:33:01.582Z,43.97
2023-03-11T10:35:44.841Z,44.06
2023-03-11T10:38:19.383Z,44.19
2023-03-11T10:40:32.205Z,44.69
2023-03-11T10:42:36.317Z,44.53
2023-03-11T10:44:41.516Z,44.44
2023-03-11T10:46:45.301Z,43.95
2023-03-11T10:48:47.897Z,43.81
2023-03-11T10:51:03.313Z,43.60
2023-03-11T10:53:13.864Z,43.37
2023-03-11T10:55:20.132Z,43.53
2023-03-11T10:57:22.701Z,43.00
2023-03-11T10:59:34.267Z,43.60
2023-03-11T11:01:37.777Z,43.44
2023-03-11T11:03:49.421Z,42.84
2023-03-11T11:06:05.607Z,40.80
2023-03-11T11:08:17.297Z,41.25
2023-03-11T11:10:28.472Z,41.54
2023-03-11T11:12:31.477Z,41.45
2023-03-11T11:14:49.336Z,39.73
2023-03-11T11:16:53.163Z,40.74
2023-03-11T11:19:08.206Z,40.03
2023-03-11T11:21:32.885Z,39.97
2023-03-11T11:24:21.213Z,39.68
2023-03-11T11:26:27.262Z,40.51
2023-03-11T11:28:31.546Z,40.25
2023-03-11T11:30:34.226Z,39.81
2023-03-11T11:32:38.197Z,39.43
2023-03-11T11:34:41.615Z,39.78
2023-03-11T11:36:45.031Z,39.38
2023-03-11T11:38:47.909Z,39.57
2023-03-11T11:40:51.897Z,40.19
2023-03-11T11:42:57.215Z,39.88
2023-03-11T11:45:05.976Z,39.50
2023-03-11T11:47:20.467Z,38.34
2023-03-11T11:49:27.781Z,39.77
2023-03-11T11:51:35.742Z,39.07
2023-03-11T11:53:44.443Z,38.68
2023-03-11T11:55:52.908Z,38.05
2023-03-11T11:57:55.683Z,38.26
2023-03-11T11:59:58.444Z,38.06
2023-03-11T12:02:18.681Z,36.27
2023-03-11T12:05:00.753Z,36.83
2023-03-11T12:07:32.592Z,37.67
2023-03-11T12:10:09.799Z,38.43
2023-03-11T12:12:39.782Z,36.99
2023-03-11T12:14:42.255Z,37.49
2023-03-11T12:16:50.562Z,37.79
2023-03-11T12:19:11.470Z,37.12
2023-03-11T12:21:39.429Z,38.38
2023-03-11T12:24:00.624Z,38.25
2023-03-11T12:26:25.982Z,37.13
2023-03-11T12:29:19.868Z,36.99
2023-03-11T12:31:27.107Z,36.83
2023-03-11T12:33:54.114Z,36.23
2023-03-11T12:35:59.298Z,36.54
2023-03-11T12:38:01.872Z,37.10
2023-03-11T12:40:43.051Z,36.62
2023-03-11T12:42:46.288Z,37.78
2023-03-11T12:44:49.976Z,38.28
2023-03-11T12:47:00.836Z,37.56
2023-03-11T12:49:13.447Z,36.48
2023-03-11T12:51:39.486Z,36.66
2023-03-11T12:53:49.000Z,37.68
2023-03-11T12:56:10.260Z,35.77
2023-03-11T12:58:48.472Z,36.60
2023-03-11T13:01:11.156Z,36.47
2023-03-11T13:03:17.557Z,38.04
2023-03-11T13:05:54.083Z,37.48
2023-03-11T13:08:10.394Z,37.91
2023-03-11T13:10:27.522Z,37.54
2023-03-11T13:12:50.935Z,38.04
2023-03-11T13:15:21.365Z,39.54
2023-03-11T13:17:26.148Z,38.66
2023-03-11T13:19:34.651Z,39.43
2023-03-11T13:21:41.446Z,39.82
2023-03-11T13:23:44.172Z,40.93
2023-03-11T13:25:52.947Z,41.28
2023-03-11T13:28:16.995Z,42.23
2023-03-11T13:30:25.085Z,41.95
2023-03-11T13:32:42.908Z,40.72
2023-03-11T13:35:00.509Z,42.40
2023-03-11T13:37:30.315Z,43.08
2023-03-11T13:39:57.887Z,43.47
2023-03-11T13:42:00.787Z,43.90
2023-03-11T13:44:30.445Z,45.09
2023-03-11T13:46:39.734Z,44.97
2023-03-11T13:48:48.508Z,45.75
2023-03-11T13:50:57.120Z,46.39
2023-03-11T13:53:03.949Z,46.43
2023-03-11T13:55:16.116Z,46.45
2023-03-11T13:57:31.838Z,46.57
2023-03-11T13:59:35.416Z,47.12
2023-03-11T14:01:38.012Z,47.77
2023-03-11T14:03:46.003Z,46.35
2023-03-11T14:05:57.331Z,46.55
2023-03-11T14:08:33.154Z,47.82
2023-03-11T14:10:35.900Z,48.18
2023-03-11T14:12:39.247Z,48.81
2023-03-11T14:14:49.382Z,48.42
2023-03-11T14:16:52.517Z,48.75
2023-03-11T14:19:13.808Z,49.01
2023-03-11T14:21:19.308Z,49.48
2023-03-11T14:23:29.740Z,50.33
2023-03-11T14:25:36.511Z,49.87
2023-03-11T14:27:39.765Z,51.03
2023-03-11T14:29:45.491Z,51.67
2023-03-11T14:31:48.344Z,51.48
2023-03-11T14:33:58.761Z,51.20
2023-03-11T14:36:11.772Z,52.22
2023-03-11T14:38:26.431Z,51.08
2023-03-11T14:40:32.476Z,52.77
2023-03-11T14:42:40.448Z,53.00
2023-03-11T14:44:45.433Z,53.05
2023-03-11T14:46:50.012Z,52.00
2023-03-11T14:48:54.833Z,52.70
2023-03-11T14:51:00.665Z,52.99
2023-03-11T14:53:18.100Z,53.53
2023-03-11T14:55:25.310Z,52.47
2023-03-11T14:57:27.825Z,52.94
2023-03-11T14:59:33.972Z,52.82
2023-03-11T15:01:41.426Z,52.75
2023-03-11T15:03:59.750Z,51.69
2023-03-11T15:06:09.054Z,52.25
2023-03-11T15:08:11.864Z,53.96
2023-03-11T15:10:14.901Z,53.99
2023-03-11T15:12:36.387Z,53.96
2023-03-11T15:14:50.595Z,55.76
2023-03-11T15:16:55.247Z,55.79
2023-03-11T15:19:21.094Z,54.90
2023-03-11T15:21:25.270Z,54.62
2023-03-11T15:23:27.845Z,53.40
2023-03-11T15:25:34.366Z,53.97
2023-03-11T15:27:39.076Z,52.69
2023-03-11T15:29:52.807Z,52.66
2023-03-11T15:31:57.330Z,53.36
2023-03-11T15:34:11.906Z,52.90
2023-03-11T15:36:39.584Z,52.49
2023-03-11T15:38:42.400Z,53.93
2023-03-11T15:40:57.902Z,53.24
2023-03-11T15:43:15.613Z,51.98
2023-03-11T15:45:20.771Z,52.45
2023-03-11T15:47:23.843Z,52.41
2023-03-11T15:49:28.357Z,52.82
2023-03-11T15:51:30.939Z,53.10
2023-03-11T15:53:33.532Z,53.08
2023-03-11T15:55:37.451Z,53.43
2023-03-11T15:57:40.564Z,53.90
2023-03-11T15:59:43.684Z,54.24
2023-03-11T16:01:47.376Z,54.21
2023-03-11T16:03:50.170Z,54.28
2023-03-11T16:05:52.950Z,54.75
2023-03-11T16:07:55.540Z,54.85
2023-03-11T16:09:58.281Z,54.44
2023-03-11T16:12:02.171Z,54.84
2023-03-11T16:14:06.216Z,54.82
2023-03-11T16:16:16.503Z,55.91
2023-03-11T16:18:19.567Z,55.42
2023-03-11T16:20:24.703Z,55.69
2023-03-11T16:22:36.693Z,55.43
2023-03-11T16:24:39.329Z,55.23
2023-03-11T16:26:41.914Z,55.62
2023-03-11T16:28:44.519Z,55.67
2023-03-11T16:30:50.552Z,55.83
2023-03-11T16:32:53.300Z,56.92
2023-03-11T16:34:56.042Z,56.94
2023-03-11T16:36:58.665Z,56.55
2023-03-11T16:39:03.360Z,56.99
2023-03-11T16:41:06.242Z,57.54
2023-03-11T16:43:12.866Z,57.18
2023-03-11T16:45:17.623Z,57.25
2023-03-11T16:47:20.216Z,57.09
2023-03-11T16:49:22.858Z,57.68
2023-03-11T16:51:25.455Z,57.70
2023-03-11T16:53:28.070Z,57.75
2023-03-11T16:55:30.875Z,58.06
2023-03-11T16:57:33.579Z,57.45
2023-03-11T16:59:36.105Z,58.29
2023-03-11T17:01:39.312Z,57.91
2023-03-11T17:03:43.633Z,58.16
2023-03-11T17:05:46.750Z,58.97
2023-03-11T17:08:00.183Z,58.36
2023-03-11T17:10:03.850Z,58.86
2023-03-11T17:12:07.106Z,58.60
2023-03-11T17:14:16.377Z,58.90
2023-03-11T17:16:19.796Z,58.91
2023-03-11T17:18:22.381Z,58.92
2023-03-11T17:20:25.214Z,59.15
2023-03-11T17:22:28.067Z,59.19
2023-03-11T17:24:32.882Z,58.98
2023-03-11T17:26:35.555Z,58.80
2023-03-11T17:28:40.210Z,59.21
2023-03-11T17:30:44.518Z,58.13
2023-03-11T17:32:47.562Z,58.65
2023-03-11T17:34:50.366Z,58.00
2023-03-11T17:36:53.220Z,57.12
2023-03-11T17:38:56.016Z,56.70
2023-03-11T17:40:58.681Z,57.55
2023-03-11T17:43:01.596Z,57.72
2023-03-11T17:45:04.379Z,57.92
2023-03-11T17:47:07.155Z,57.66
2023-03-11T17:49:14.457Z,56.33
2023-03-11T17:51:19.695Z,56.52
2023-03-11T17:53:22.285Z,56.53
2023-03-11T17:55:25.004Z,56.76
2023-03-11T17:57:27.711Z,56.95
2023-03-11T17:59:31.595Z,57.12
2023-03-11T18:01:34.282Z,56.57
2023-03-11T18:03:37.007Z,55.19
2023-03-11T18:05:39.852Z,56.53
2023-03-11T18:07:42.567Z,57.05
2023-03-11T18:09:45.496Z,56.37
2023-03-11T18:11:48.137Z,57.10
2023-03-11T18:13:51.960Z,56.37
2023-03-11T18:15:59.709Z,56.74
2023-03-11T18:18:02.321Z,56.37
2023-03-11T18:20:05.733Z,56.55
2023-03-11T18:22:08.361Z,55.62
2023-03-11T18:24:11.182Z,56.25
2023-03-11T18:26:16.991Z,57.27
2023-03-11T18:28:20.006Z,58.08
2023-03-11T18:30:22.774Z,56.25
2023-03-11T18:32:25.504Z,55.87
2023-03-11T18:34:28.118Z,56.36
2023-03-11T18:36:33.722Z,55.72
2023-03-11T18:38:36.352Z,57.06
2023-03-11T18:40:38.994Z,56.39
2023-03-11T18:42:41.672Z,55.82
2023-03-11T18:44:44.405Z,56.06
2023-03-11T18:46:47.233Z,56.33
2023-03-11T18:48:50.702Z,56.01
2023-03-11T18:50:54.527Z,56.14
2023-03-11T18:52:57.212Z,56.49
2023-03-11T18:54:59.773Z,57.11
2023-03-11T18:57:02.366Z,56.93
2023-03-11T18:59:05.034Z,56.54
2023-03-11T19:01:16.287Z,58.00
2023-03-11T19:03:19.081Z,57.64
2023-03-11T19:05:22.014Z,57.66
2023-03-11T19:07:24.745Z,57.58
2023-03-11T19:09:27.511Z,57.65
2023-03-11T19:11:30.280Z,56.60
2023-03-11T19:13:45.879Z,57.02
2023-03-11T19:15:49.266Z,56.16
2023-03-11T19:18:04.321Z,57.86
2023-03-11T19:20:10.254Z,57.56
2023-03-11T19:22:12.878Z,56.90
2023-03-11T19:24:15.504Z,56.40
2023-03-11T19:26:18.162Z,56.80
2023-03-11T19:28:22.010Z,55.84
2023-03-11T19:30:25.150Z,56.71
2023-03-11T19:32:28.423Z,57.35
2023-03-11T19:34:31.269Z,58.00
2023-03-11T19:36:33.863Z,57.58
2023-03-11T19:38:36.688Z,57.09
2023-03-11T19:40:39.984Z,57.31
2023-03-11T19:42:42.666Z,57.35
2023-03-11T19:44:45.339Z,56.79
2023-03-11T19:46:48.059Z,55.92
2023-03-11T19:48:51.220Z,57.34
2023-03-11T19:50:54.262Z,56.49
2023-03-11T19:52:56.858Z,57.06
2023-03-11T19:54:59.530Z,55.99
2023-03-11T19:57:02.312Z,56.77
2023-03-11T19:59:04.885Z,56.71
2023-03-11T20:01:07.492Z,57.15
2023-03-11T20:03:12.160Z,57.06
2023-03-11T20:05:14.819Z,57.34
2023-03-11T20:07:17.738Z,57.01
2023-03-11T20:09:21.112Z,58.10
2023-03-11T20:11:23.704Z,58.33
2023-03-11T20:13:26.332Z,57.73
2023-03-11T20:15:32.593Z,57.51
2023-03-11T20:17:36.224Z,58.15
2023-03-11T20:19:38.882Z,58.58
2023-03-11T20:21:42.850Z,57.01
2023-03-11T20:23:46.570Z,57.70
2023-03-11T20:25:49.319Z,58.47
2023-03-11T20:27:53.957Z,57.99
2023-03-11T20:29:56.829Z,58.49
2023-03-11T20:31:59.552Z,58.80
2023-03-11T20:34:03.801Z,58.95
2023-03-11T20:36:09.114Z,58.84
2023-03-11T20:38:13.146Z,59.41
2023-03-11T20:40:17.605Z,59.54
2023-03-11T20:42:21.947Z,59.61
2023-03-11T20:44:24.693Z,59.76
2023-03-11T20:46:27.358Z,59.87
2023-03-11T20:48:30.619Z,60.48
2023-03-11T20:50:33.382Z,60.86
2023-03-11T20:52:36.019Z,60.03
2023-03-11T20:54:38.997Z,61.29
2023-03-11T20:56:42.341Z,61.01
2023-03-11T20:58:45.973Z,60.50
2023-03-11T21:00:48.582Z,60.85
2023-03-11T21:02:51.273Z,60.84
2023-03-11T21:04:54.042Z,61.21
2023-03-11T21:06:57.652Z,61.62
2023-03-11T21:09:03.129Z,61.63
2023-03-11T21:11:05.744Z,61.92
2023-03-11T21:13:08.645Z,62.28
2023-03-11T21:15:11.826Z,62.55
2023-03-11T21:17:14.553Z,62.62
2023-03-11T21:19:17.268Z,61.95
2023-03-11T21:21:21.045Z,62.96
2023-03-11T21:23:24.198Z,63.10
2023-03-11T21:25:27.125Z,63.14
2023-03-11T21:27:31.001Z,62.74
2023-03-11T21:29:33.767Z,64.38
2023-03-11T21:31:36.592Z,64.30
2023-03-11T21:33:40.186Z,64.51
2023-03-11T21:35:43.212Z,64.37
2023-03-11T21:37:46.709Z,65.04
2023-03-11T21:39:49.597Z,64.43
2023-03-11T21:41:54.681Z,65.31
2023-03-11T21:43:58.013Z,65.21
2023-03-11T21:46:01.228Z,65.60
2023-03-11T21:48:06.874Z,66.00
2023-03-11T21:50:10.333Z,66.98
2023-03-11T21:52:13.241Z,66.93
2023-03-11T21:54:16.173Z,67.92
2023-03-11T21:56:19.942Z,68.02
2023-03-11T21:58:23.248Z,67.57
2023-03-11T22:00:26.131Z,68.43
2023-03-11T22:02:28.950Z,68.50
2023-03-11T22:04:32.140Z,68.07
2023-03-11T22:06:35.152Z,68.50
2023-03-11T22:08:38.201Z,68.36
2023-03-11T22:10:42.303Z,68.59
2023-03-11T22:12:45.641Z,68.67
2023-03-11T22:14:48.368Z,69.08
2023-03-11T22:16:51.683Z,69.67
2023-03-11T22:18:54.689Z,70.76
2023-03-11T22:21:00.629Z,70.41
2023-03-11T22:23:03.863Z,71.18
2023-03-11T22:25:06.972Z,70.26
2023-03-11T22:27:09.662Z,70.84
2023-03-11T22:29:13.645Z,70.94
2023-03-11T22:31:18.741Z,71.38
2023-03-11T22:33:21.541Z,72.02
2023-03-11T22:35:25.868Z,72.22
2023-03-11T22:37:29.410Z,71.41
2023-03-11T22:39:32.503Z,72.02
2023-03-11T22:41:35.356Z,71.54
2023-03-11T22:43:38.897Z,71.54
2023-03-11T22:45:41.942Z,72.51
2023-03-11T22:47:44.549Z,72.09
2023-03-11T22:49:47.397Z,72.25
2023-03-11T22:51:50.077Z,72.80
2023-03-11T22:53:52.620Z,72.42
2023-03-11T22:55:55.290Z,72.77
2023-03-11T22:57:58.004Z,72.99
2023-03-11T23:00:00.654Z,73.28
2023-03-11T23:02:03.363Z,73.05
2023-03-11T23:04:06.056Z,73.08
2023-03-11T23:06:11.191Z,72.94
2023-03-11T23:08:16.505Z,74.36
2023-03-11T23:10:21.388Z,74.72
2023-03-11T23:12:24.209Z,74.72
2023-03-11T23:14:37.873Z,75.16
2023-03-11T23:16:45.576Z,76.14
2023-03-11T23:18:51.519Z,75.39
2023-03-11T23:20:54.070Z,76.25
2023-03-11T23:22:56.728Z,76.48
2023-03-11T23:25:02.323Z,77.39
2023-03-11T23:27:05.668Z,77.93
2023-03-11T23:29:08.308Z,77.07
2023-03-11T23:31:13.060Z,76.88
2023-03-11T23:33:15.742Z,76.99
2023-03-11T23:35:18.670Z,77.31
2023-03-11T23:37:21.348Z,77.22
2023-03-11T23:39:23.999Z,77.36
2023-03-11T23:41:26.755Z,76.85
2023-03-11T23:43:29.299Z,77.33
2023-03-11T23:45:31.931Z,77.45
2023-03-11T23:47:34.599Z,77.32
2023-03-11T23:49:37.182Z,78.03
2023-03-11T23:51:41.082Z,77.95
2023-03-11T23:53:43.816Z,77.48
2023-03-11T23:55:46.675Z,77.81
2023-03-11T23:57:49.292Z,77.15
2023-03-11T23:59:51.945Z,78.09
